Terminal Aerodrome Forecast
Issued by NWS Tulsa, OK

Home | Current Version | Previous Version | Text Only | Print | Product List | Glossary On
Versions: 1 2 3 4 5 6 7 8 9 10 11 12 13 14
000
FTUS44 KTSA 262337
TAFTUL
TAF
KTUL 262337Z 2700/2724 VRB11KT P6SM VCTS SCT040CB BKN200
     FM270200 16003KT P6SM FEW050 BKN250
     FM271200 15003KT P6SM SCT025 BKN250
     FM271600 16008KT P6SM SCT045 SCT250=

USA.gov is the U.S. government's official web portal to all federal, state and local government web resources and services.